createdAt,value
2018-10-19T00:00:06.745Z,99.99
2018-10-19T00:01:06.669Z,99.99
2018-10-19T00:02:06.835Z,99.99
2018-10-19T00:03:06.503Z,99.99
2018-10-19T00:04:06.421Z,99.99
2018-10-19T00:05:06.416Z,99.99
2018-10-19T00:06:06.250Z,99.99
2018-10-19T00:07:06.187Z,99.99
2018-10-19T00:08:06.089Z,99.99
2018-10-19T00:09:06.069Z,99.99
2018-10-19T00:10:05.924Z,99.99
2018-10-19T00:11:05.883Z,99.99
2018-10-19T00:12:05.762Z,99.99
2018-10-19T00:13:05.677Z,99.99
2018-10-19T00:14:05.596Z,99.99
2018-10-19T00:15:05.540Z,99.99
2018-10-19T00:16:05.435Z,99.99
2018-10-19T00:17:05.409Z,99.99
2018-10-19T00:18:05.278Z,99.99
2018-10-19T00:19:05.190Z,99.99
2018-10-19T00:20:05.100Z,99.99
2018-10-19T00:21:05.079Z,99.99
2018-10-19T00:22:05.243Z,99.99
2018-10-19T00:23:04.911Z,99.99
2018-10-19T00:24:04.777Z,99.99
2018-10-19T00:25:04.692Z,99.99
2018-10-19T00:26:04.613Z,99.99
2018-10-19T00:27:04.780Z,99.99
2018-10-19T00:28:04.455Z,99.99
2018-10-19T00:29:04.425Z,99.99
2018-10-19T00:30:04.287Z,99.99
2018-10-19T00:31:04.200Z,99.99
2018-10-19T00:32:04.110Z,99.99
2018-10-19T00:33:04.042Z,99.99
2018-10-19T00:34:03.953Z,99.99
2018-10-19T00:35:03.909Z,99.99
2018-10-19T00:36:03.788Z,99.99
2018-10-19T00:37:03.964Z,99.99
2018-10-19T00:38:03.629Z,99.99
2018-10-19T00:39:03.562Z,99.99
2018-10-19T00:40:03.465Z,99.99
2018-10-19T00:41:03.437Z,99.99
2018-10-19T00:42:03.299Z,99.99
2018-10-19T00:43:03.211Z,99.99
2018-10-19T00:44:03.131Z,99.99
2018-10-19T00:45:03.076Z,99.99
2018-10-19T00:46:02.964Z,99.99
2018-10-19T00:47:02.912Z,99.99
2018-10-19T00:48:02.812Z,99.99
2018-10-19T00:49:02.715Z,99.99
2018-10-19T00:50:02.643Z,99.99
2018-10-19T00:51:02.639Z,99.99
2018-10-19T00:52:02.477Z,99.99
2018-10-19T00:53:02.398Z,99.99
2018-10-19T00:54:02.316Z,99.99
2018-10-19T00:55:02.250Z,99.99
2018-10-19T00:56:02.145Z,99.99
2018-10-19T00:57:02.118Z,99.99
2018-10-19T00:58:01.980Z,99.99
2018-10-19T00:59:01.966Z,99.99
2018-10-19T01:00:01.817Z,99.99
2018-10-19T01:01:01.731Z,99.99
2018-10-19T01:02:01.651Z,99.99
2018-10-19T01:03:01.624Z,99.99
2018-10-19T01:04:01.491Z,99.99
2018-10-19T01:05:01.483Z,99.99
2018-10-19T01:06:01.333Z,99.99
2018-10-19T01:07:01.245Z,99.99
2018-10-19T01:08:01.153Z,99.99
2018-10-19T01:09:01.133Z,99.99
2018-10-19T01:10:01.009Z,99.99
2018-10-19T01:11:00.960Z,99.99
2018-10-19T01:12:00.836Z,99.99
2018-10-19T01:13:00.744Z,99.99
2018-10-19T01:14:00.667Z,99.99
2018-10-19T01:15:00.594Z,99.99
2018-10-19T01:16:00.509Z,99.99
2018-10-19T01:17:00.423Z,99.99
2018-10-19T01:18:00.342Z,99.99
2018-10-19T01:19:00.256Z,99.99
2018-10-19T01:20:00.165Z,99.99
2018-10-19T01:21:00.115Z,99.99
2018-10-19T01:22:00.008Z,99.99
2018-10-19T01:22:59.939Z,99.99
2018-10-19T01:23:59.840Z,99.99
2018-10-19T01:24:59.753Z,99.99
2018-10-19T01:25:59.683Z,99.99
2018-10-19T01:26:59.605Z,99.99
2018-10-19T01:27:59.524Z,99.99
2018-10-19T01:28:59.504Z,99.99
2018-10-19T01:29:59.344Z,99.99
2018-10-19T01:30:59.268Z,99.99
2018-10-19T01:31:59.194Z,99.99
2018-10-19T01:32:59.117Z,99.99
2018-10-19T01:33:59.019Z,99.99
2018-10-19T01:34:58.945Z,99.99
2018-10-19T01:35:58.856Z,99.99
2018-10-19T01:36:58.769Z,99.99
2018-10-19T01:37:58.697Z,99.99
2018-10-19T01:38:58.663Z,99.99
2018-10-19T01:39:58.536Z,99.99
2018-10-19T01:40:58.456Z,99.99
2018-10-19T01:41:58.357Z,99.99
2018-10-19T01:42:58.283Z,99.99
2018-10-19T01:43:58.192Z,99.99
2018-10-19T01:44:58.152Z,99.99
2018-10-19T01:45:58.035Z,99.99
2018-10-19T01:46:57.959Z,99.99
2018-10-19T01:47:57.883Z,99.99
2018-10-19T01:48:57.783Z,99.99
2018-10-19T01:49:57.717Z,99.99
2018-10-19T01:50:57.653Z,99.99
2018-10-19T01:51:57.547Z,99.99
2018-10-19T01:52:57.487Z,99.99
2018-10-19T01:53:57.381Z,99.99
2018-10-19T01:54:57.305Z,99.99
2018-10-19T01:55:57.211Z,99.99
2018-10-19T01:56:57.164Z,99.99
2018-10-19T01:57:57.044Z,99.99
2018-10-19T01:58:56.969Z,99.99
2018-10-19T01:59:56.884Z,99.99
2018-10-19T02:00:56.800Z,99.99
2018-10-19T02:01:56.963Z,99.99
2018-10-19T02:02:56.684Z,99.99
2018-10-19T02:03:56.548Z,99.99
2018-10-19T02:04:56.524Z,99.99
2018-10-19T02:05:56.387Z,99.99
2018-10-19T02:06:56.311Z,99.99
2018-10-19T02:07:56.226Z,99.99
2018-10-19T02:08:56.153Z,99.99
2018-10-19T02:09:56.062Z,99.99
2018-10-19T02:10:56.019Z,99.99
2018-10-19T02:11:55.890Z,99.99
2018-10-19T02:12:55.815Z,99.99
2018-10-19T02:13:55.722Z,99.99
2018-10-19T02:14:55.655Z,99.99
2018-10-19T02:15:55.560Z,99.99
2018-10-19T02:16:55.486Z,99.99
2018-10-19T02:17:55.401Z,99.99
2018-10-19T02:18:55.313Z,99.99
2018-10-19T02:19:55.237Z,99.99
2018-10-19T02:20:55.165Z,99.99
2018-10-19T02:21:55.068Z,99.99
2018-10-19T02:22:55.046Z,99.99
2018-10-19T02:23:54.901Z,99.99
2018-10-19T02:24:54.813Z,99.99
2018-10-19T02:25:54.735Z,99.99
2018-10-19T02:26:54.671Z,99.99
2018-10-19T02:27:54.576Z,99.99
2018-10-19T02:28:54.500Z,99.99
2018-10-19T02:29:54.400Z,99.99
2018-10-19T02:30:54.324Z,99.99
2018-10-19T02:31:54.240Z,99.99
2018-10-19T02:32:54.166Z,99.99
2018-10-19T02:33:54.084Z,99.99
2018-10-19T02:34:54.003Z,99.99
2018-10-19T02:35:53.912Z,99.99
2018-10-19T02:36:54.127Z,99.99
2018-10-19T02:37:53.753Z,99.99
2018-10-19T02:38:53.702Z,99.99
2018-10-19T02:39:53.595Z,99.99
2018-10-19T02:40:53.544Z,99.99
2018-10-19T02:41:53.414Z,99.99
2018-10-19T02:42:53.344Z,99.99
2018-10-19T02:43:53.253Z,99.99
2018-10-19T02:44:53.169Z,99.99
2018-10-19T02:45:53.087Z,99.99
2018-10-19T02:46:53.006Z,99.99
2018-10-19T02:47:52.926Z,99.99
2018-10-19T02:48:52.842Z,99.99
2018-10-19T02:49:52.760Z,99.99
2018-10-19T02:50:52.720Z,99.99
2018-10-19T02:51:52.592Z,99.99
2018-10-19T02:52:52.504Z,99.99
2018-10-19T02:53:52.431Z,99.99
2018-10-19T02:54:52.343Z,99.99
2018-10-19T02:55:52.273Z,99.99
2018-10-19T02:56:52.246Z,99.99
2018-10-19T02:57:52.091Z,99.99
2018-10-19T02:58:52.018Z,99.99
2018-10-19T02:59:51.935Z,99.99
2018-10-19T03:00:51.857Z,99.99
2018-10-19T03:01:51.766Z,99.99
2018-10-19T03:02:51.679Z,99.99
2018-10-19T03:03:51.602Z,99.99
2018-10-19T03:04:51.545Z,99.99
2018-10-19T03:05:51.435Z,99.99
2018-10-19T03:06:51.356Z,99.99
2018-10-19T03:07:51.267Z,99.99
2018-10-19T03:08:51.191Z,99.99
2018-10-19T03:09:51.108Z,99.99
2018-10-19T03:10:51.024Z,99.99
2018-10-19T03:11:50.947Z,99.99
2018-10-19T03:12:50.857Z,99.99
2018-10-19T03:13:50.777Z,99.99
2018-10-19T03:14:50.692Z,99.99
2018-10-19T03:15:50.606Z,99.99
2018-10-19T03:16:50.533Z,99.99
2018-10-19T03:17:50.445Z,99.99
2018-10-19T03:18:50.354Z,99.99
2018-10-19T03:19:50.281Z,99.99
2018-10-19T03:20:50.193Z,99.99
2018-10-19T03:21:50.126Z,99.99
2018-10-19T03:22:50.035Z,99.99
2018-10-19T03:23:49.941Z,99.99
2018-10-19T03:24:49.868Z,99.99
2018-10-19T03:25:49.783Z,99.99
2018-10-19T03:26:49.947Z,99.99
2018-10-19T03:27:49.623Z,99.99
2018-10-19T03:28:49.535Z,99.99
2018-10-19T03:29:49.468Z,99.99
2018-10-19T03:30:49.471Z,99.99
2018-10-19T03:31:49.287Z,99.99
2018-10-19T03:32:49.211Z,99.99
2018-10-19T03:33:49.131Z,99.99
2018-10-19T03:34:49.033Z,99.99
2018-10-19T03:35:48.968Z,99.99
2018-10-19T03:36:48.869Z,99.99
2018-10-19T03:37:48.800Z,99.99
2018-10-19T03:38:48.711Z,99.99
2018-10-19T03:39:48.669Z,99.99
2018-10-19T03:40:48.547Z,99.99
2018-10-19T03:41:48.474Z,99.99
2018-10-19T03:42:48.387Z,99.99
2018-10-19T03:43:48.297Z,99.99
2018-10-19T03:44:48.213Z,99.99
2018-10-19T03:45:48.131Z,99.99
2018-10-19T03:46:48.044Z,99.99
2018-10-19T03:47:47.957Z,99.99
2018-10-19T03:48:47.880Z,99.99
2018-10-19T03:49:47.799Z,99.99
2018-10-19T03:50:47.723Z,99.99
2018-10-19T03:51:47.639Z,99.99
2018-10-19T03:52:47.552Z,99.99
2018-10-19T03:53:47.478Z,99.99
2018-10-19T03:54:47.383Z,99.99
2018-10-19T03:55:47.323Z,99.99
2018-10-19T03:56:47.223Z,99.99
2018-10-19T03:57:47.132Z,99.99
2018-10-19T03:58:47.057Z,99.99
2018-10-19T03:59:46.973Z,99.99
2018-10-19T04:00:46.902Z,99.99
2018-10-19T04:01:46.814Z,99.99
2018-10-19T04:02:46.727Z,99.99
2018-10-19T04:03:46.675Z,99.99
2018-10-19T04:04:46.560Z,99.99
2018-10-19T04:05:46.478Z,99.99
2018-10-19T04:06:46.403Z,99.99
2018-10-19T04:07:46.319Z,99.99
2018-10-19T04:08:46.239Z,99.99
2018-10-19T04:09:46.147Z,99.99
2018-10-19T04:10:46.059Z,99.99
2018-10-19T04:11:45.990Z,99.99
2018-10-19T04:12:45.903Z,99.99
2018-10-19T04:13:45.812Z,99.99
2018-10-19T04:14:45.748Z,99.99
2018-10-19T04:15:45.647Z,99.99
2018-10-19T04:16:45.573Z,99.99
2018-10-19T04:17:45.489Z,99.99
2018-10-19T04:18:45.402Z,99.99
2018-10-19T04:19:45.324Z,99.99
2018-10-19T04:20:45.235Z,99.99
2018-10-19T04:21:45.164Z,99.99
2018-10-19T04:22:45.079Z,99.99
2018-10-19T04:23:45.005Z,99.99
2018-10-19T04:24:44.916Z,99.99
2018-10-19T04:25:44.831Z,99.99
2018-10-19T04:26:44.738Z,99.99
2018-10-19T04:27:44.723Z,99.99
2018-10-19T04:28:44.582Z,99.99
2018-10-19T04:29:44.499Z,99.99
2018-10-19T04:30:44.417Z,99.99
2018-10-19T04:31:44.333Z,99.99
2018-10-19T04:32:44.250Z,99.99
2018-10-19T04:33:44.167Z,99.99
2018-10-19T04:34:44.094Z,99.99
2018-10-19T04:35:44.002Z,99.99
2018-10-19T04:36:43.916Z,99.99
2018-10-19T04:37:43.844Z,99.99
2018-10-19T04:38:43.756Z,99.99
2018-10-19T04:39:43.666Z,99.99
2018-10-19T04:40:43.591Z,99.99
2018-10-19T04:41:43.958Z,99.99
2018-10-19T04:42:43.415Z,99.99
2018-10-19T04:43:43.344Z,99.99
2018-10-19T04:44:43.257Z,99.99
2018-10-19T04:45:43.178Z,99.99
2018-10-19T04:46:43.093Z,99.99
2018-10-19T04:47:43.060Z,99.99
2018-10-19T04:48:42.926Z,99.99
2018-10-19T04:49:42.843Z,99.99
2018-10-19T04:50:42.767Z,99.99
2018-10-19T04:51:42.679Z,99.99
2018-10-19T04:52:42.590Z,99.99
2018-10-19T04:53:42.569Z,99.99
2018-10-19T04:54:42.433Z,99.99
2018-10-19T04:55:42.343Z,99.99
2018-10-19T04:56:42.267Z,99.99
2018-10-19T04:57:42.258Z,99.99
2018-10-19T04:58:42.104Z,99.99
2018-10-19T04:59:42.023Z,99.99
2018-10-19T05:00:41.934Z,99.99
2018-10-19T05:01:42.111Z,99.99
2018-10-19T05:02:41.889Z,99.99
2018-10-19T05:03:41.677Z,99.99
2018-10-19T05:04:41.713Z,99.99
2018-10-19T05:05:41.547Z,99.99
2018-10-19T05:06:41.480Z,99.99
2018-10-19T05:07:41.352Z,99.99
2018-10-19T05:08:41.268Z,99.99
2018-10-19T05:09:41.195Z,99.99
2018-10-19T05:10:41.107Z,99.99
2018-10-19T05:11:41.024Z,99.99
2018-10-19T05:12:41.089Z,99.99
2018-10-19T05:13:40.856Z,99.99
2018-10-19T05:14:40.768Z,99.99
2018-10-19T05:15:40.708Z,99.99
2018-10-19T05:16:40.608Z,99.99
2018-10-19T05:17:40.529Z,99.99
2018-10-19T05:18:40.441Z,99.99
2018-10-19T05:19:40.368Z,99.99
2018-10-19T05:20:40.282Z,99.99
2018-10-19T05:21:40.199Z,99.99
2018-10-19T05:22:40.112Z,99.99
2018-10-19T05:23:40.032Z,99.99
2018-10-19T05:24:39.973Z,99.99
2018-10-19T05:25:39.874Z,99.99
2018-10-19T05:26:40.037Z,99.99
2018-10-19T05:27:39.696Z,99.99
2018-10-19T05:28:39.621Z,99.99
2018-10-19T05:29:39.532Z,99.99
2018-10-19T05:30:39.456Z,99.99
2018-10-19T05:31:39.410Z,99.99
2018-10-19T05:32:39.336Z,99.99
2018-10-19T05:33:39.208Z,99.99
2018-10-19T05:34:39.120Z,99.99
2018-10-19T05:35:39.032Z,99.99
2018-10-19T05:36:38.956Z,99.99
2018-10-19T05:37:38.872Z,99.99
2018-10-19T05:38:38.789Z,99.99
2018-10-19T05:39:38.713Z,99.99
2018-10-19T05:40:38.619Z,99.99
2018-10-19T05:41:38.848Z,99.99
2018-10-19T05:42:38.461Z,99.99
2018-10-19T05:43:38.443Z,99.99
2018-10-19T05:44:38.300Z,99.99
2018-10-19T05:45:38.209Z,99.99
2018-10-19T05:46:38.122Z,99.99
2018-10-19T05:47:38.049Z,99.99
2018-10-19T05:48:37.961Z,99.99
2018-10-19T05:49:37.883Z,99.99
2018-10-19T05:50:37.795Z,99.99
2018-10-19T05:51:37.712Z,99.99
2018-10-19T05:52:37.636Z,99.99
2018-10-19T05:53:37.551Z,99.99
2018-10-19T05:54:37.464Z,99.99
2018-10-19T05:55:37.396Z,99.99
2018-10-19T05:56:37.302Z,99.99
2018-10-19T05:57:37.222Z,99.99
2018-10-19T05:58:37.136Z,99.99
2018-10-19T05:59:37.050Z,99.99
2018-10-19T06:00:36.970Z,99.99
2018-10-19T06:01:37.137Z,99.99
2018-10-19T06:02:36.963Z,99.99
2018-10-19T06:03:36.723Z,99.99
2018-10-19T06:04:36.635Z,99.99
2018-10-19T06:05:36.553Z,99.99
2018-10-19T06:06:36.478Z,99.99
2018-10-19T06:07:36.388Z,99.99
2018-10-19T06:08:36.314Z,99.99
2018-10-19T06:09:36.221Z,99.99
2018-10-19T06:10:36.134Z,99.99
2018-10-19T06:11:36.064Z,99.99
2018-10-19T06:12:35.976Z,99.99
2018-10-19T06:13:35.946Z,99.99
2018-10-19T06:14:35.810Z,99.99
2018-10-19T06:15:35.724Z,99.99
2018-10-19T06:16:35.662Z,99.99
2018-10-19T06:17:35.567Z,99.99
2018-10-19T06:18:35.480Z,99.99
2018-10-19T06:19:35.397Z,99.99
2018-10-19T06:20:35.311Z,99.99
2018-10-19T06:21:35.228Z,99.99
2018-10-19T06:22:35.152Z,99.99
2018-10-19T06:23:35.067Z,99.99
2018-10-19T06:24:34.993Z,99.99
2018-10-19T06:25:34.900Z,99.99
2018-10-19T06:26:34.852Z,99.99
2018-10-19T06:27:34.751Z,99.99
2018-10-19T06:28:34.655Z,99.99
2018-10-19T06:29:34.564Z,99.99
2018-10-19T06:30:34.489Z,99.99
2018-10-19T06:31:34.412Z,99.99
2018-10-19T06:32:34.324Z,99.99
2018-10-19T06:33:34.251Z,99.99
2018-10-19T06:34:34.154Z,99.99
2018-10-19T06:35:34.076Z,99.99
2018-10-19T06:36:33.990Z,99.99
2018-10-19T06:37:33.919Z,99.99
2018-10-19T06:38:33.832Z,99.99
2018-10-19T06:39:33.742Z,99.99
2018-10-19T06:40:33.675Z,99.99
2018-10-19T06:41:33.578Z,99.99
2018-10-19T06:42:33.488Z,99.99
2018-10-19T06:43:33.417Z,99.99
2018-10-19T06:44:33.329Z,99.99
2018-10-19T06:45:33.250Z,99.99
2018-10-19T06:46:33.254Z,99.99
2018-10-19T06:47:33.078Z,99.99
2018-10-19T06:48:33.002Z,99.99
2018-10-19T06:49:32.920Z,99.99
2018-10-19T06:50:32.847Z,99.99
2018-10-19T06:51:32.751Z,99.99
2018-10-19T06:52:32.664Z,99.99
2018-10-19T06:53:32.593Z,99.99
2018-10-19T06:54:32.506Z,99.99
2018-10-19T06:55:32.428Z,99.99
2018-10-19T06:56:32.346Z,99.99
2018-10-19T06:57:32.254Z,99.99
2018-10-19T06:58:32.192Z,99.99
2018-10-19T06:59:32.138Z,99.99
2018-10-19T07:00:32.011Z,99.99
2018-10-19T07:01:31.927Z,99.99
2018-10-19T07:02:31.840Z,99.99
2018-10-19T07:03:31.768Z,99.99
2018-10-19T07:04:31.693Z,99.99
2018-10-19T07:05:31.644Z,99.99
2018-10-19T07:06:31.522Z,99.99
2018-10-19T07:07:31.428Z,99.99
2018-10-19T07:08:31.381Z,99.99
2018-10-19T07:09:31.271Z,99.99
2018-10-19T07:10:31.184Z,99.99
2018-10-19T07:11:31.109Z,99.99
2018-10-19T07:12:31.022Z,99.99
2018-10-19T07:13:30.930Z,99.99
2018-10-19T07:14:30.857Z,99.99
2018-10-19T07:15:30.815Z,99.99
2018-10-19T07:16:30.697Z,99.99
2018-10-19T07:17:30.618Z,99.99
2018-10-19T07:18:30.520Z,99.99
2018-10-19T07:19:30.442Z,99.99
2018-10-19T07:20:30.357Z,99.99
2018-10-19T07:21:30.325Z,99.99
2018-10-19T07:22:30.197Z,99.99
2018-10-19T07:23:30.120Z,99.99
2018-10-19T07:24:30.031Z,99.99
2018-10-19T07:25:29.948Z,99.99
2018-10-19T07:26:29.876Z,99.99
2018-10-19T07:27:29.784Z,99.99
2018-10-19T07:28:29.698Z,99.99
2018-10-19T07:29:29.656Z,99.99
2018-10-19T07:30:29.530Z,99.99
2018-10-19T07:31:29.460Z,99.99
2018-10-19T07:32:29.373Z,99.99
2018-10-19T07:33:29.281Z,99.99
2018-10-19T07:34:29.207Z,99.99
2018-10-19T07:35:29.121Z,99.99
2018-10-19T07:36:29.136Z,99.99
2018-10-19T07:37:28.975Z,99.99
2018-10-19T07:38:28.888Z,99.99
2018-10-19T07:39:28.795Z,99.99
2018-10-19T07:40:28.707Z,99.99
2018-10-19T07:41:28.636Z,99.99
2018-10-19T07:42:28.598Z,99.99
2018-10-19T07:43:28.482Z,99.99
2018-10-19T07:44:28.388Z,99.99
2018-10-19T07:45:28.298Z,99.99
2018-10-19T07:46:28.222Z,99.99
2018-10-19T07:47:28.170Z,99.99
2018-10-19T07:48:28.088Z,99.99
2018-10-19T07:49:27.972Z,99.99
2018-10-19T07:50:27.898Z,99.99
2018-10-19T07:51:27.808Z,99.99
2018-10-19T07:52:27.721Z,99.99
2018-10-19T07:53:27.651Z,99.99
2018-10-19T07:54:27.594Z,99.99
2018-10-19T07:55:27.485Z,99.99
2018-10-19T07:56:27.399Z,99.99
2018-10-19T07:57:27.329Z,99.99
2018-10-19T07:58:27.240Z,99.99
2018-10-19T07:59:27.151Z,99.99
2018-10-19T08:00:27.091Z,99.99
2018-10-19T08:01:27.234Z,99.99
2018-10-19T08:02:26.909Z,99.99
2018-10-19T08:03:26.828Z,99.99
2018-10-19T08:04:26.753Z,99.99
2018-10-19T08:05:26.662Z,99.99
2018-10-19T08:06:26.588Z,99.99
2018-10-19T08:07:26.497Z,99.99
2018-10-19T08:08:26.409Z,99.99
2018-10-19T08:09:26.338Z,99.99
2018-10-19T08:10:26.252Z,99.99
2018-10-19T08:11:26.185Z,99.99
2018-10-19T08:12:26.087Z,99.99
2018-10-19T08:13:26.016Z,99.99
2018-10-19T08:14:25.931Z,99.99
2018-10-19T08:15:25.851Z,99.95
2018-10-19T08:16:25.765Z,99.18
2018-10-19T08:17:25.675Z,97.94
2018-10-19T08:18:25.611Z,97.27
2018-10-19T08:19:25.517Z,97.85
2018-10-19T08:20:25.441Z,97.66
2018-10-19T08:21:25.349Z,98.08
2018-10-19T08:22:25.276Z,97.47
2018-10-19T08:23:25.189Z,97.13
2018-10-19T08:24:25.113Z,96.46
2018-10-19T08:25:25.031Z,96.17
2018-10-19T08:26:24.956Z,96.08
2018-10-19T08:27:24.898Z,95.51
2018-10-19T08:28:24.786Z,96.46
2018-10-19T08:29:24.707Z,95.84
2018-10-19T08:30:24.629Z,95.75
2018-10-19T08:31:24.556Z,96.51
2018-10-19T08:32:24.468Z,98.42
2018-10-19T08:33:24.377Z,98.03
2018-10-19T08:34:24.292Z,97.75
2018-10-19T08:35:24.218Z,96.56
2018-10-19T08:36:24.132Z,95.51
2018-10-19T08:37:24.080Z,93.55
2018-10-19T08:38:23.968Z,92.35
2018-10-19T08:39:23.892Z,90.20
2018-10-19T08:40:23.801Z,87.56
2018-10-19T08:41:23.738Z,86.99
2018-10-19T08:42:23.642Z,86.61
2018-10-19T08:43:23.578Z,86.99
2018-10-19T08:44:23.477Z,87.81
2018-10-19T08:45:23.408Z,88.43
2018-10-19T08:46:23.321Z,88.29
2018-10-19T08:47:23.243Z,88.09
2018-10-19T08:48:23.167Z,86.41
2018-10-19T08:49:23.077Z,86.57
2018-10-19T08:50:23.001Z,85.80
2018-10-19T08:51:22.918Z,86.47
2018-10-19T08:52:22.844Z,86.66
2018-10-19T08:53:22.781Z,86.76
2018-10-19T08:54:22.677Z,87.23
2018-10-19T08:55:22.605Z,88.77
2018-10-19T08:56:22.530Z,91.06
2018-10-19T08:57:22.435Z,92.16
2018-10-19T08:58:22.460Z,93.02
2018-10-19T08:59:22.282Z,92.21
2018-10-19T09:00:22.190Z,91.74
2018-10-19T09:01:22.120Z,92.02
2018-10-19T09:02:22.037Z,91.83
2018-10-19T09:03:21.989Z,92.59
2018-10-19T09:04:21.872Z,92.11
2018-10-19T09:05:21.796Z,91.20
2018-10-19T09:06:21.706Z,89.87
2018-10-19T09:07:21.633Z,89.10
2018-10-19T09:08:21.559Z,88.81
2018-10-19T09:09:21.465Z,87.33
2018-10-19T09:10:21.379Z,87.48
2018-10-19T09:11:21.370Z,87.29
2018-10-19T09:12:21.232Z,87.09
2018-10-19T09:13:21.148Z,87.14
2018-10-19T09:14:21.073Z,87.09
2018-10-19T09:15:20.991Z,88.24
2018-10-19T09:16:20.906Z,89.92
2018-10-19T09:17:20.820Z,90.78
2018-10-19T09:18:20.762Z,91.16
2018-10-19T09:19:20.661Z,90.97
2018-10-19T09:20:20.586Z,91.16
2018-10-19T09:21:20.494Z,90.25
2018-10-19T09:22:20.419Z,89.67
2018-10-19T09:23:20.336Z,90.06
2018-10-19T09:24:20.262Z,90.39
2018-10-19T09:25:20.169Z,90.63
2018-10-19T09:26:20.108Z,89.96
2018-10-19T09:27:20.007Z,89.96
2018-10-19T09:28:19.935Z,89.20
2018-10-19T09:29:19.882Z,88.24
2018-10-19T09:30:19.772Z,87.76
2018-10-19T09:31:19.685Z,88.24
2018-10-19T09:32:19.609Z,88.68
2018-10-19T09:33:19.525Z,89.53
2018-10-19T09:34:19.450Z,88.91
2018-10-19T09:35:19.492Z,88.72
2018-10-19T09:36:19.414Z,89.48
2018-10-19T09:37:19.196Z,88.96
2018-10-19T09:38:19.132Z,88.58
2018-10-19T09:39:19.037Z,88.68
2018-10-19T09:40:18.996Z,89.92
2018-10-19T09:41:18.913Z,89.68
2018-10-19T09:42:18.795Z,90.25
2018-10-19T09:43:18.710Z,90.54
2018-10-19T09:44:18.635Z,91.35
2018-10-19T09:45:18.551Z,90.20
2018-10-19T09:46:18.476Z,90.59
2018-10-19T09:47:18.387Z,89.82
2018-10-19T09:48:18.308Z,89.34
2018-10-19T09:49:18.225Z,90.01
2018-10-19T09:50:18.151Z,89.29
2018-10-19T09:51:18.071Z,88.81
2018-10-19T09:52:17.992Z,87.19
2018-10-19T09:53:17.898Z,86.43
2018-10-19T09:54:17.823Z,86.52
2018-10-19T09:55:17.796Z,87.14
2018-10-19T09:56:17.729Z,85.75
2018-10-19T09:57:17.574Z,85.85
2018-10-19T09:58:17.498Z,86.08
2018-10-19T09:59:17.469Z,85.99
2018-10-19T10:00:17.336Z,85.36
2018-10-19T10:01:17.268Z,84.06
2018-10-19T10:02:17.178Z,82.24
2018-10-19T10:03:17.243Z,81.77
2018-10-19T10:04:17.012Z,81.54
2018-10-19T10:05:17.014Z,81.34
2018-10-19T10:06:16.855Z,81.68
2018-10-19T10:07:16.777Z,82.54
2018-10-19T10:08:16.695Z,81.25
2018-10-19T10:09:16.611Z,80.96
2018-10-19T10:10:16.523Z,79.37
2018-10-19T10:11:16.450Z,79.08
2018-10-19T10:12:16.378Z,79.28
2018-10-19T10:13:16.292Z,78.51
2018-10-19T10:14:16.215Z,77.11
2018-10-19T10:15:16.318Z,76.02
2018-10-19T10:16:16.055Z,77.17
2018-10-19T10:17:16.061Z,77.55
2018-10-19T10:18:15.889Z,76.40
2018-10-19T10:19:15.962Z,76.89
2018-10-19T10:20:15.728Z,77.55
2018-10-19T10:21:15.665Z,77.75
2018-10-19T10:22:15.605Z,77.65
2018-10-19T10:23:15.496Z,78.03
2018-10-19T10:24:15.402Z,78.03
2018-10-19T10:25:15.380Z,78.03
2018-10-19T10:26:15.269Z,78.61
2018-10-19T10:27:15.165Z,78.13
2018-10-19T10:28:15.118Z,78.47
2018-10-19T10:29:15.020Z,77.51
2018-10-19T10:30:14.931Z,78.19
2018-10-19T10:31:14.923Z,78.38
2018-10-19T10:32:14.785Z,79.24
2018-10-19T10:33:14.689Z,79.43
2018-10-19T10:34:14.658Z,79.81
2018-10-19T10:35:14.532Z,80.87
2018-10-19T10:36:14.456Z,80.48
2018-10-19T10:37:14.449Z,79.33
2018-10-19T10:38:14.291Z,79.37
2018-10-19T10:39:14.371Z,79.75
2018-10-19T10:40:14.188Z,78.80
2018-10-19T10:41:14.055Z,78.09
2018-10-19T10:42:13.969Z,77.84
2018-10-19T10:43:13.976Z,76.21
2018-10-19T10:44:13.815Z,75.20
2018-10-19T10:45:13.737Z,73.95
2018-10-19T10:46:13.742Z,74.24
2018-10-19T10:47:13.587Z,73.66
2018-10-19T10:48:13.496Z,73.13
2018-10-19T10:49:13.474Z,71.88
2018-10-19T10:50:13.343Z,71.78
2018-10-19T10:51:13.257Z,72.30
2018-10-19T10:52:13.202Z,72.55
2018-10-19T10:53:13.090Z,72.84
2018-10-19T10:54:13.017Z,72.84
2018-10-19T10:55:13.022Z,72.78
2018-10-19T10:56:12.856Z,73.00
2018-10-19T10:57:12.784Z,71.31
2018-10-19T10:58:12.779Z,69.11
2018-10-19T10:59:12.644Z,68.08
2018-10-19T11:00:12.545Z,67.32
2018-10-19T11:01:12.509Z,66.58
2018-10-19T11:02:12.398Z,65.66
2018-10-19T11:03:12.320Z,64.53
2018-10-19T11:04:12.429Z,63.28
2018-10-19T11:05:12.155Z,64.50
2018-10-19T11:06:12.080Z,67.22
2018-10-19T11:07:12.024Z,67.07
2018-10-19T11:08:11.924Z,67.76
2018-10-19T11:09:11.844Z,68.53
2018-10-19T11:10:11.808Z,70.29
2018-10-19T11:11:11.692Z,69.37
2018-10-19T11:12:11.604Z,67.96
2018-10-19T11:13:11.588Z,67.25
2018-10-19T11:14:11.472Z,66.81
2018-10-19T11:15:11.383Z,65.30
2018-10-19T11:16:11.369Z,62.23
2018-10-19T11:17:11.274Z,60.01
2018-10-19T11:18:11.149Z,59.94
2018-10-19T11:19:11.081Z,60.04
2018-10-19T11:20:10.997Z,59.92
2018-10-19T11:21:10.922Z,59.66
2018-10-19T11:22:10.865Z,59.30
2018-10-19T11:23:10.763Z,57.79
2018-10-19T11:24:10.787Z,57.60
2018-10-19T11:25:10.631Z,57.21
2018-10-19T11:26:10.533Z,57.73
2018-10-19T11:27:10.456Z,58.92
2018-10-19T11:28:10.407Z,58.17
2018-10-19T11:29:10.325Z,57.82
2018-10-19T11:30:10.228Z,57.31
2018-10-19T11:31:10.171Z,56.15
2018-10-19T11:32:10.070Z,56.05
2018-10-19T11:33:10.000Z,57.67
2018-10-19T11:34:09.930Z,57.79
2018-10-19T11:35:09.852Z,58.01
2018-10-19T11:36:09.776Z,56.18
2018-10-19T11:37:09.742Z,57.89
2018-10-19T11:38:09.623Z,56.95
2018-10-19T11:39:09.550Z,56.21
2018-10-19T11:40:09.489Z,56.37
2018-10-19T11:41:09.396Z,57.69
2018-10-19T11:42:09.322Z,57.31
2018-10-19T11:43:09.256Z,56.54
2018-10-19T11:44:09.173Z,56.18
2018-10-19T11:45:09.105Z,57.21
2018-10-19T11:46:09.091Z,58.70
2018-10-19T11:47:08.948Z,58.65
2018-10-19T11:48:08.873Z,57.82
2018-10-19T11:49:08.844Z,57.24
2018-10-19T11:50:08.728Z,56.79
2018-10-19T11:51:08.653Z,56.09
2018-10-19T11:52:08.615Z,55.83
2018-10-19T11:53:08.498Z,56.80
2018-10-19T11:54:08.421Z,57.37
2018-10-19T11:55:08.390Z,56.12
2018-10-19T11:56:08.278Z,55.55
2018-10-19T11:57:08.279Z,55.74
2018-10-19T11:58:08.204Z,55.29
2018-10-19T11:59:08.048Z,54.90
2018-10-19T12:00:07.974Z,55.29
2018-10-19T12:01:07.921Z,55.96
2018-10-19T12:02:07.837Z,56.54
2018-10-19T12:03:07.750Z,54.93
2018-10-19T12:04:07.753Z,53.80
2018-10-19T12:05:07.603Z,52.52
2018-10-19T12:06:07.529Z,52.55
2018-10-19T12:07:07.476Z,52.45
2018-10-19T12:08:07.380Z,52.06
2018-10-19T12:09:07.312Z,51.77
2018-10-19T12:10:07.282Z,52.91
2018-10-19T12:11:07.165Z,53.87
2018-10-19T12:12:07.090Z,53.48
2018-10-19T12:13:07.058Z,54.06
2018-10-19T12:14:06.936Z,53.94
2018-10-19T12:15:06.910Z,53.58
2018-10-19T12:16:06.802Z,53.77
2018-10-19T12:17:06.791Z,53.09
2018-10-19T12:18:06.642Z,53.39
2018-10-19T12:19:06.625Z,53.39
2018-10-19T12:20:06.493Z,53.17
2018-10-19T12:21:06.476Z,54.39
2018-10-19T12:22:06.339Z,54.80
2018-10-19T12:23:06.262Z,53.48
2018-10-19T12:24:06.187Z,53.07
2018-10-19T12:25:06.159Z,53.07
2018-10-19T12:26:06.097Z,52.52
2018-10-19T12:27:06.025Z,51.48
2018-10-19T12:28:05.889Z,50.64
2018-10-19T12:29:05.818Z,50.54
2018-10-19T12:30:05.744Z,50.40
2018-10-19T12:31:05.704Z,51.97
2018-10-19T12:32:05.593Z,51.26
2018-10-19T12:33:05.529Z,51.84
2018-10-19T12:34:05.452Z,51.62
2018-10-19T12:35:05.381Z,51.92
2018-10-19T12:36:05.307Z,51.79
2018-10-19T12:37:05.247Z,53.40
2018-10-19T12:38:05.152Z,54.72
2018-10-19T12:39:05.135Z,54.91
2018-10-19T12:40:05.007Z,56.08
2018-10-19T12:41:04.993Z,57.00
2018-10-19T12:42:04.859Z,55.59
2018-10-19T12:43:04.818Z,55.52
2018-10-19T12:44:04.703Z,54.87
2018-10-19T12:45:04.687Z,53.43
2018-10-19T12:46:04.557Z,53.91
2018-10-19T12:47:04.484Z,54.20
2018-10-19T12:48:04.409Z,54.42
2018-10-19T12:49:04.396Z,53.45
2018-10-19T12:50:04.256Z,53.96
2018-10-19T12:51:04.206Z,53.74